Time;durP1;ratioP1;P1;durP2;ratioP2;P2;SDS_P1;SDS_P2;PMS_P1;PMS_P2;Temp;Humidity;BMP_temperature;BMP_pressure;BME280_temperature;BME280_humidity;BME280_pressure;Samples;Min_cycle;Max_cycle;Signal;HPM_P1;HPM_P2
2023/02/09 02:22:30;;;;;;;64.22;25.02;;;;;;;-8.79;63.30;103459.85;1646064;82;21198;-57
2023/02/09 02:26:38;;;;;;;69.62;29.37;;;;;;;-10.60;63.02;103342.08;1702103;83;21238;-56
2023/02/09 02:30:37;;;;;;;93.10;39.55;;;;;;;-10.62;62.93;103344.25;1673192;85;21625;-57
2023/02/09 02:34:19;;;;;;;106.63;41.48;;;;;;;-10.67;62.81;103350.75;1741667;81;21302;-56
2023/02/09 02:37:50;;;;;;;112.52;45.03;;;;;;;-10.67;62.88;103357.36;1706647;84;21225;-57
2023/02/09 02:45:58;;;;;;;95.65;38.00;;;;;;;-10.68;62.90;103345.43;1735619;77;21240;-59
2023/02/09 02:49:27;;;;;;;87.05;33.45;;;;;;;-10.78;62.70;103348.78;1749323;79;21244;-58
2023/02/09 02:52:48;;;;;;;70.57;30.97;;;;;;;-10.79;62.58;103344.33;1858635;76;22230;-57
2023/02/09 02:56:01;;;;;;;64.75;27.25;;;;;;;-10.83;62.60;103346.05;1737106;81;22382;-57
2023/02/09 02:59:31;;;;;;;63.68;27.60;;;;;;;-10.80;62.71;103350.50;1772634;80;21433;-55
2023/02/09 03:03:04;;;;;;;57.73;24.72;;;;;;;-10.72;62.87;103351.55;1764279;81;21266;-55
2023/02/09 03:06:23;;;;;;;54.00;25.23;;;;;;;-10.69;62.80;103341.02;1772937;79;21225;-56
2023/02/09 03:09:47;;;;;;;60.20;25.55;;;;;;;-10.65;62.81;103341.55;1772601;80;21205;-57
2023/02/09 03:13:19;;;;;;;52.38;24.25;;;;;;;-10.60;62.88;103337.20;1772750;81;21232;-56
2023/02/09 03:17:08;;;;;;;48.40;21.87;;;;;;;-10.68;62.61;103329.55;1772969;80;21200;-57
2023/02/09 03:21:07;;;;;;;54.27;23.67;;;;;;;-10.74;62.46;103318.86;1696192;81;21165;-56
2023/02/09 03:25:03;;;;;;;56.48;24.63;;;;;;;-10.61;62.62;103320.88;1875888;76;22314;-55
2023/02/09 03:28:29;;;;;;;48.68;22.15;;;;;;;-10.58;62.77;103323.58;1785078;79;21511;-56
2023/02/09 03:31:54;;;;;;;54.67;23.67;;;;;;;-10.48;62.93;103321.12;1804563;79;21173;-56
2023/02/09 03:35:25;;;;;;;50.20;23.40;;;;;;;-10.41;63.11;103314.18;1805289;79;21240;-57
2023/02/09 03:39:15;;;;;;;46.20;22.98;;;;;;;-10.36;63.21;103314.73;1806185;79;21203;-55
2023/02/09 03:42:39;;;;;;;50.25;22.75;;;;;;;-10.29;63.26;103306.47;1688636;85;21268;-56
2023/02/09 03:46:15;;;;;;;54.93;23.75;;;;;;;-10.28;63.16;103308.23;1685151;85;21228;-55
2023/02/09 03:49:35;;;;;;;56.75;25.27;;;;;;;-10.28;63.15;103310.46;1683646;85;21248;-58
2023/02/09 03:53:05;;;;;;;62.80;26.45;;;;;;;-10.26;63.16;103307.84;1683721;85;21212;-55
2023/02/09 03:56:49;;;;;;;64.22;25.88;;;;;;;-10.27;63.03;103310.05;1680325;85;21267;-56
2023/02/09 04:00:15;;;;;;;59.55;24.80;;;;;;;-10.26;63.07;103304.77;1683952;85;21414;-57
2023/02/09 04:03:44;;;;;;;61.90;27.02;;;;;;;-10.24;63.16;103312.73;1687976;85;21283;-56
2023/02/09 04:07:26;;;;;;;;;;;;;;;-10.24;63.10;103303.47;1721679;83;21283;-55
2023/02/09 04:10:51;;;;;;;71.75;31.15;;;;;;;-10.27;62.99;103304.29;1720498;82;20240;-55
2023/02/09 04:14:20;;;;;;;86.05;34.25;;;;;;;-10.27;63.01;103307.39;1704234;83;21845;-57
2023/02/09 04:17:42;;;;;;;84.17;35.80;;;;;;;-10.28;63.11;103306.91;1718782;83;21306;-56
2023/02/09 04:21:07;;;;;;;82.50;37.83;;;;;;;-10.28;63.15;103306.91;1720666;82;21760;-58
2023/02/09 04:24:34;;;;;;;90.85;38.30;;;;;;;-10.29;63.16;103310.44;1720970;82;21697;-57
2023/02/09 04:28:07;;;;;;;92.33;40.75;;;;;;;-10.33;63.06;103309.91;1720773;82;21327;-57
2023/02/09 04:31:55;;;;;;;85.20;37.10;;;;;;;-10.35;63.08;103305.05;1705644;83;21397;-58
2023/02/09 04:42:42;;;;;;;80.05;34.67;;;;;;;-10.41;63.04;103295.23;1682479;84;21205;-58
2023/02/09 04:50:08;;;;;;;81.02;35.85;;;;;;;-10.41;63.11;103289.03;1693845;84;21427;-56
2023/02/09 05:01:30;;;;;;;123.55;50.08;;;;;;;-10.35;63.19;103301.08;1840650;75;22235;-56
2023/02/09 05:05:00;;;;;;;136.47;51.23;;;;;;;-10.42;63.13;103296.53;1764208;78;21264;-58
2023/02/09 05:08:43;;;;;;;115.70;48.20;;;;;;;-10.44;62.83;103290.30;1877663;76;22270;-57
2023/02/09 05:11:56;;;;;;;101.72;43.13;;;;;;;-10.50;62.84;103283.59;1805096;79;21788;-57
2023/02/09 05:15:15;;;;;;;108.00;41.35;;;;;;;-10.49;62.90;103288.91;1805192;79;21709;-56
2023/02/09 05:33:24;;;;;;;99.28;39.13;;;;;;;-10.32;63.06;103282.59;1850806;77;22496;-57
2023/02/09 05:37:07;;;;;;;90.57;36.23;;;;;;;-10.34;63.04;103282.99;1729608;81;21399;-58
2023/02/09 05:40:23;;;;;;;77.58;34.08;;;;;;;-10.32;63.04;103270.22;1771229;79;21274;-57
2023/02/09 05:44:17;;;;;;;76.07;35.50;;;;;;;-10.27;63.08;103273.84;1769531;81;21229;-57
2023/02/09 05:47:54;;;;;;;69.77;33.38;;;;;;;-10.13;63.12;103275.41;1841716;76;22739;-58
2023/02/09 05:51:11;;;;;;;68.72;31.35;;;;;;;-10.15;63.13;103272.73;1773216;79;21196;-58
2023/02/09 05:54:55;;;;;;;68.12;32.40;;;;;;;-10.14;62.97;103274.50;1785428;79;21963;-58
2023/02/09 06:03:01;;;;;;;77.55;34.63;;;;;;;-10.04;62.83;103262.27;1813559;76;21175;-58
2023/02/09 06:24:46;;;;;;;75.12;29.85;;;;;;;-9.25;63.34;103264.22;1792464;78;22312;-58
2023/02/09 06:32:31;;;;;;;81.45;36.20;;;;;;;-9.07;63.43;103265.36;1687584;79;21293;-59
2023/02/09 06:40:19;;;;;;;73.20;33.25;;;;;;;-8.73;63.59;103278.09;1774509;76;21485;31
2023/02/09 06:44:12;;;;;;;72.47;30.88;;;;;;;-8.54;63.66;103270.77;1721887;79;21557;-58
2023/02/09 06:47:47;;;;;;;69.17;29.77;;;;;;;-8.35;63.73;103270.05;1739921;77;21263;-58
2023/02/09 07:17:18;;;;;;;60.08;27.67;;;;;;;-6.81;63.99;103249.58;1718842;79;21297;-57
2023/02/09 09:52:37;;;;;;;47.40;24.98;;;;;;;0.78;63.58;103119.83;1719287;79;21250;31
2023/02/09 10:27:40;;;;;;;37.67;20.57;;;;;;;2.42;62.91;103041.18;1808584;75;22773;-60
2023/02/09 13:55:00;;;;;;;51.48;26.75;;;;;;;1.30;61.49;102943.70;1786281;76;21215;-58
2023/02/09 14:05:44;;;;;;;44.75;23.77;;;;;;;1.29;61.59;102935.17;1696404;81;21420;-57
2023/02/09 14:09:48;;;;;;;41.95;22.85;;;;;;;1.26;61.64;102940.67;1707968;83;21204;-57
2023/02/09 14:13:26;;;;;;;46.90;23.95;;;;;;;1.23;61.71;102928.19;1687263;79;21220;-58
2023/02/09 14:25:10;;;;;;;41.18;23.52;;;;;;;1.20;61.70;102935.50;1701252;79;21306;-57
2023/02/09 14:32:21;;;;;;;37.23;20.05;;;;;;;1.19;61.51;102932.41;1621565;84;20226;-58
2023/02/09 15:04:45;;;;;;;63.08;35.08;;;;;;;1.11;61.57;102895.38;1639441;85;21259;-57
2023/02/09 15:12:06;;;;;;;46.92;25.45;;;;;;;1.12;61.61;102895.32;1842025;76;23223;-57
2023/02/09 15:15:46;;;;;;;52.83;27.75;;;;;;;1.04;61.68;102896.06;1768383;79;21280;-58
2023/02/09 15:20:08;;;;;;;55.50;27.75;;;;;;;0.99;61.55;102889.05;1772614;78;21312;-56
2023/02/09 15:31:14;;;;;;;68.62;36.95;;;;;;;0.91;61.54;102899.22;1757538;77;21641;-56
2023/02/09 15:34:50;;;;;;;64.42;33.80;;;;;;;0.91;61.50;102891.13;1736661;80;21299;-57
2023/02/09 15:48:47;;;;;;;65.15;31.93;;;;;;;0.93;61.60;102894.20;1811570;77;22867;-57
2023/02/09 15:52:16;;;;;;;53.55;29.45;;;;;;;0.86;61.58;102883.66;1752358;80;21903;-57
2023/02/09 15:56:28;;;;;;;54.65;30.45;;;;;;;0.84;61.50;102885.06;1703716;79;21843;-57
2023/02/09 15:59:47;;;;;;;60.58;32.98;;;;;;;0.84;61.55;102886.91;1740022;80;21869;-59
2023/02/09 16:03:39;;;;;;;56.10;31.82;;;;;;;0.87;61.55;102886.80;1701021;80;21842;-58
2023/02/09 16:07:04;;;;;;;55.88;30.60;;;;;;;0.93;61.43;102880.72;1876587;76;22258;-56
2023/02/09 16:10:45;;;;;;;54.77;30.20;;;;;;;0.86;61.36;102880.51;1763884;81;21820;-57
2023/02/09 16:14:22;;;;;;;49.27;28.02;;;;;;;0.87;61.42;102875.52;1800864;79;21196;-56
2023/02/09 16:17:41;;;;;;;52.20;27.40;;;;;;;0.93;61.44;102873.09;1876988;76;22249;-57
2023/02/09 16:20:53;;;;;;;45.90;27.30;;;;;;;0.86;61.45;102869.72;1786051;79;21363;-59
2023/02/09 16:24:11;;;;;;;55.78;31.12;;;;;;;0.86;61.33;102869.72;1792914;80;21453;-59
2023/02/09 16:27:35;;;;;;;52.58;29.80;;;;;;;0.86;61.29;102875.11;1745422;82;21194;-58
2023/02/09 16:31:00;;;;;;;59.30;31.60;;;;;;;0.84;61.24;102870.23;1778507;79;21363;-57
2023/02/09 16:34:27;;;;;;;95.35;44.88;;;;;;;0.83;61.31;102868.48;1752191;80;21260;-57
2023/02/09 16:37:38;;;;;;;185.30;66.47;;;;;;;0.82;61.34;102876.17;1765669;79;21387;-59
2023/02/09 16:40:53;;;;;;;139.80;61.37;;;;;;;0.82;61.35;102877.98;1793141;80;21210;-58
2023/02/09 16:44:33;;;;;;;96.82;48.35;;;;;;;0.81;61.24;102875.73;1793156;79;21190;-58
2023/02/09 16:47:51;;;;;;;63.92;35.17;;;;;;;0.80;61.18;102872.64;1796679;79;21389;-58
2023/02/09 16:51:04;;;;;;;52.08;30.05;;;;;;;0.77;61.13;102863.31;1772536;79;21292;-57
2023/02/09 16:54:15;;;;;;;55.58;32.42;;;;;;;0.77;61.16;102867.36;1769101;79;21346;-58
2023/02/09 16:57:28;;;;;;;53.95;32.63;;;;;;;0.74;61.18;102864.77;1791176;79;21251;-58
2023/02/09 17:00:44;;;;;;;53.60;31.12;;;;;;;0.74;61.21;102858.03;1771911;80;21264;-59
2023/02/09 17:03:57;;;;;;;56.02;32.05;;;;;;;0.73;61.26;102865.68;1750378;81;21255;-58
2023/02/09 17:07:04;;;;;;;63.73;33.20;;;;;;;0.70;61.30;102862.23;1742866;81;21232;-58
2023/02/09 17:10:21;;;;;;;67.00;36.35;;;;;;;0.68;61.29;102857.36;1728764;82;21201;-58
2023/02/09 17:13:32;;;;;;;58.98;32.08;;;;;;;0.70;61.27;102855.50;1696178;84;21202;-60
2023/02/09 17:16:44;;;;;;;44.80;26.68;;;;;;;0.68;61.24;102855.52;1749319;81;21206;-57
2023/02/09 17:19:51;;;;;;;48.95;28.98;;;;;;;0.68;61.25;102858.22;1694764;84;21805;-61
2023/02/09 17:23:00;;;;;;;57.62;31.70;;;;;;;0.68;61.21;102854.17;1692695;83;21248;-59
2023/02/09 17:26:11;;;;;;;47.10;30.30;;;;;;;0.70;61.24;102855.02;1704629;84;21269;-60
2023/02/09 17:29:23;;;;;;;46.98;27.80;;;;;;;0.72;61.25;102853.16;1749299;81;22195;-59
2023/02/09 17:32:30;;;;;;;47.25;27.40;;;;;;;0.72;61.29;102846.41;1749217;81;21206;-58
2023/02/09 17:35:39;;;;;;;45.35;26.82;;;;;;;0.74;61.27;102849.94;1704575;83;21600;-59
2023/02/09 17:38:52;;;;;;;51.00;27.82;;;;;;;0.73;61.30;102845.95;1753413;80;21350;-58
2023/02/09 17:42:04;;;;;;;40.83;24.40;;;;;;;0.72;61.30;102840.13;1749079;81;21791;-60
2023/02/09 17:45:20;;;;;;;36.03;22.32;;;;;;;0.69;61.31;102842.48;1748106;81;21759;-59
2023/02/09 17:48:27;;;;;;;42.45;23.67;;;;;;;0.68;61.27;102844.73;1740887;82;21556;-58
2023/02/09 17:51:44;;;;;;;49.67;27.62;;;;;;;0.69;61.28;102849.67;1748188;82;21913;-59
2023/02/09 17:54:58;;;;;;;49.25;26.05;;;;;;;0.66;61.26;102843.94;1730619;82;21257;-58
2023/02/09 17:58:07;;;;;;;;;;;;;;;0.67;61.26;102844.34;1771177;80;21752;-58
2023/02/09 18:01:35;;;;;;;47.05;26.00;;;;;;;0.67;61.27;102844.80;1768396;80;20230;-57
2023/02/09 18:04:44;;;;;;;77.90;41.43;;;;;;;0.65;61.30;102846.20;1765987;81;21276;-58
2023/02/09 18:07:52;;;;;;;55.25;30.08;;;;;;;0.63;61.27;102848.09;1765773;80;21174;-58
2023/02/09 18:11:00;;;;;;;64.42;32.50;;;;;;;0.61;61.28;102840.52;1765774;81;21201;-58
2023/02/09 18:14:08;;;;;;;55.05;29.12;;;;;;;0.61;61.27;102843.66;1765926;80;21703;-60
2023/02/09 18:17:16;;;;;;;59.18;30.50;;;;;;;0.60;61.25;102841.46;1758486;79;21211;-58
2023/02/09 18:20:31;;;;;;;60.67;30.23;;;;;;;0.60;61.26;102839.22;1752285;81;21240;-58
2023/02/09 18:23:46;;;;;;;77.17;36.98;;;;;;;0.59;61.30;102847.77;1716075;82;21224;-59
2023/02/09 18:26:57;;;;;;;75.83;37.80;;;;;;;0.59;61.29;102838.33;1728367;83;21229;-60
2023/02/09 18:30:11;;;;;;;61.35;31.90;;;;;;;0.59;61.32;102836.98;1774882;80;21843;-59
2023/02/09 18:33:24;;;;;;;60.17;30.43;;;;;;;0.59;61.26;102840.13;1775424;80;21324;-58
2023/02/09 18:36:37;;;;;;;55.30;29.00;;;;;;;0.59;61.30;102842.38;1754934;80;21382;-58
2023/02/09 18:39:47;;;;;;;54.67;29.77;;;;;;;0.59;61.26;102843.72;1755459;81;21418;-57
2023/02/09 18:42:57;;;;;;;56.42;29.18;;;;;;;0.57;61.19;102841.53;1776250;79;21227;-58
2023/02/09 18:46:06;;;;;;;68.47;36.40;;;;;;;0.56;61.19;102839.78;1772748;80;21391;-58
2023/02/09 18:49:18;;;;;;;72.70;38.42;;;;;;;0.56;61.21;102840.23;1672822;82;21232;-57
2023/02/09 18:52:33;;;;;;;64.67;33.65;;;;;;;0.54;61.21;102840.30;1719419;83;21269;-57
2023/02/09 18:55:45;;;;;;;57.03;32.20;;;;;;;0.53;61.28;102833.16;1725375;82;21217;-58
2023/02/09 18:58:57;;;;;;;57.95;31.05;;;;;;;0.54;61.34;102834.91;1765253;79;21170;-59
2023/02/09 19:02:09;;;;;;;55.83;29.92;;;;;;;0.55;61.33;102829.95;1740282;81;21205;-57
2023/02/09 19:05:19;;;;;;;56.28;30.70;;;;;;;0.54;61.33;102830.86;1778095;80;21315;-64
2023/02/09 19:08:31;;;;;;;53.85;29.57;;;;;;;0.51;61.34;102823.37;1757639;81;21364;-58
2023/02/09 19:11:48;;;;;;;76.35;41.75;;;;;;;0.48;61.35;102822.99;1792144;80;21308;-59
2023/02/09 19:15:01;;;;;;;58.80;33.10;;;;;;;0.48;61.44;102830.19;1755927;81;21194;-58
2023/02/09 19:18:26;;;;;;;62.90;35.17;;;;;;;0.46;61.43;102819.46;1726359;79;21222;-59
2023/02/09 19:21:36;;;;;;;90.35;49.88;;;;;;;0.43;61.42;102818.71;1699519;83;21703;-58
2023/02/09 19:24:52;;;;;;;59.80;33.78;;;;;;;0.44;61.46;102816.42;1697815;82;21726;-57
2023/02/09 19:28:03;;;;;;;61.20;34.95;;;;;;;0.46;61.49;102818.61;1716320;82;21210;-58
2023/02/09 19:31:24;;;;;;;59.15;33.73;;;;;;;0.44;61.52;102813.27;1730286;83;21245;-58
2023/02/09 19:34:38;;;;;;;63.70;33.35;;;;;;;0.46;61.54;102814.08;1730490;82;21790;-58
2023/02/09 19:37:48;;;;;;;60.98;33.42;;;;;;;0.45;61.54;102807.39;1730465;82;21249;-59
2023/02/09 19:40:58;;;;;;;51.73;31.75;;;;;;;0.46;61.62;102803.30;1730382;82;21206;-58
2023/02/09 19:44:12;;;;;;;55.95;32.33;;;;;;;0.47;61.66;102802.39;1729621;82;21356;-59
2023/02/09 19:47:28;;;;;;;58.38;31.62;;;;;;;0.46;61.68;102798.40;1729847;83;21750;-58
2023/02/09 19:50:42;;;;;;;57.95;34.08;;;;;;;0.48;61.75;102805.48;1726560;82;21230;-58
2023/02/09 19:53:53;;;;;;;56.20;32.75;;;;;;;0.49;61.66;102799.64;1700514;84;21357;-58
2023/02/09 19:57:05;;;;;;;58.48;30.97;;;;;;;0.50;61.62;102796.89;1701136;84;21207;-57
2023/02/09 20:00:23;;;;;;;54.03;30.27;;;;;;;0.49;61.57;102795.11;1701264;84;21423;-58
2023/02/09 20:03:39;;;;;;;56.05;32.00;;;;;;;0.49;61.52;102794.25;1700226;84;21436;-57
2023/02/09 20:06:48;;;;;;;58.08;31.85;;;;;;;0.47;61.52;102792.95;1686420;84;21204;-61
2023/02/09 20:09:57;;;;;;;53.75;31.17;;;;;;;0.45;61.54;102789.42;1700449;84;21390;-62
2023/02/09 20:13:04;;;;;;;54.25;30.00;;;;;;;0.45;61.53;102781.34;1700773;84;21748;-58
2023/02/09 20:16:33;;;;;;;55.15;32.00;;;;;;;0.45;61.53;102788.53;1700957;84;21207;-58
2023/02/09 20:19:48;;;;;;;63.00;34.18;;;;;;;0.46;61.53;102786.27;1701165;82;21279;-57
2023/02/09 20:23:08;;;;;;;64.87;33.73;;;;;;;0.46;61.54;102776.35;1706846;84;21393;-57
2023/02/09 20:26:25;;;;;;;61.73;35.38;;;;;;;0.45;61.54;102775.95;1696318;82;21218;-58
2023/02/09 20:29:36;;;;;;;57.62;31.90;;;;;;;0.45;61.57;102769.22;1706196;83;21830;-59
2023/02/09 20:32:58;;;;;;;66.97;34.18;;;;;;;0.46;61.64;102763.38;1731349;83;21865;-58
2023/02/09 20:36:17;;;;;;;57.55;31.27;;;;;;;0.46;61.62;102768.27;1706657;84;21419;-56
2023/02/09 20:39:29;;;;;;;55.12;31.42;;;;;;;0.46;61.56;102764.23;1743127;81;21735;-57
2023/02/09 20:49:56;;;;;;;61.35;35.03;;;;;;;0.45;61.60;102766.52;1725958;82;21419;-56
2023/02/09 20:53:06;;;;;;;65.05;36.53;;;;;;;0.44;61.61;102767.92;1694402;83;21221;-56
2023/02/09 20:56:20;;;;;;;70.30;37.98;;;;;;;0.42;61.58;102768.44;1759822;81;21252;-57
2023/02/09 20:59:33;;;;;;;69.67;38.00;;;;;;;0.41;61.56;102763.53;1740363;80;21922;-56
2023/02/09 21:02:45;;;;;;;76.65;39.85;;;;;;;0.44;61.62;102776.90;1726907;82;21281;-57
2023/02/09 21:05:58;;;;;;;64.92;35.88;;;;;;;0.45;61.58;102773.26;1760470;80;21325;-57
2023/02/09 21:09:27;;;;;;;62.55;35.90;;;;;;;0.47;61.66;102771.86;1726456;82;21952;-56
2023/02/09 21:12:42;;;;;;;71.70;38.85;;;;;;;0.47;61.63;102774.09;1709484;84;21734;-56
2023/02/09 21:15:56;;;;;;;68.87;39.42;;;;;;;0.47;61.62;102774.09;1760277;81;21220;-57
2023/02/09 21:19:12;;;;;;;74.80;40.30;;;;;;;0.47;61.59;102769.16;1727601;82;21885;-56
2023/02/09 21:22:27;;;;;;;64.58;37.40;;;;;;;0.45;61.58;102767.87;1699785;81;21349;-57
2023/02/09 21:25:42;;;;;;;65.05;37.63;;;;;;;0.46;61.60;102769.62;1703058;83;21222;-57
2023/02/09 21:28:55;;;;;;;69.10;37.03;;;;;;;0.46;61.61;102770.97;1700232;84;22415;-57
2023/02/09 21:32:17;;;;;;;71.97;40.05;;;;;;;0.46;61.60;102766.06;1756791;81;21277;-57
2023/02/09 21:35:30;;;;;;;77.67;42.58;;;;;;;0.44;61.63;102763.42;1756928;81;21375;-57
2023/02/09 21:38:46;;;;;;;61.05;35.08;;;;;;;0.45;61.67;102769.22;1703714;84;21336;-57
2023/02/09 21:45:28;;;;;;;65.92;35.90;;;;;;;0.47;61.72;102761.97;1703353;84;21766;-56
2023/02/09 21:48:43;;;;;;;62.50;34.83;;;;;;;0.47;61.74;102747.61;1732353;81;21201;-56
2023/02/09 21:51:55;;;;;;;60.60;35.83;;;;;;;0.46;61.72;102751.25;1702063;83;21261;-56
2023/02/09 21:55:07;;;;;;;62.50;35.73;;;;;;;0.45;61.75;102749.02;1686223;84;21281;-57
2023/02/09 21:58:06;;;;;;;57.93;32.23;;;;;;;0.45;61.77;102746.31;1712063;81;21214;-56
2023/02/09 22:01:01;;;;;;;66.25;35.50;;;;;;;0.44;61.79;102744.56;1700750;84;21329;-57
2023/02/09 22:03:58;;;;;;;56.23;32.23;;;;;;;0.45;61.72;102753.05;1756712;81;21182;-56
2023/02/09 22:06:49;;;;;;;65.47;34.78;;;;;;;0.42;61.66;102747.77;1702224;84;21230;-57
2023/02/09 22:09:47;;;;;;;62.55;34.35;;;;;;;0.43;61.68;102746.83;1733913;81;21181;-58
2023/02/09 22:13:07;;;;;;;59.13;35.17;;;;;;;0.44;61.73;102744.56;1704338;84;21715;-57
2023/02/09 22:16:17;;;;;;;63.42;34.53;;;;;;;0.45;61.82;102749.02;1700251;83;21249;-57
2023/02/09 22:19:29;;;;;;;64.42;35.50;;;;;;;0.47;61.90;102747.15;1737789;81;21205;-57
2023/02/09 22:22:41;;;;;;;64.80;35.28;;;;;;;0.50;62.01;102750.19;1703151;80;21225;-57
2023/02/09 22:26:12;;;;;;;60.50;32.78;;;;;;;0.51;62.02;102744.75;1697361;84;21253;-57
2023/02/09 22:29:34;;;;;;;54.00;30.37;;;;;;;0.51;62.01;102751.48;1697399;84;21265;-57
2023/02/09 22:32:47;;;;;;;62.70;33.35;;;;;;;0.52;61.98;102742.94;1683081;84;21230;-57
2023/02/09 22:36:00;;;;;;;56.40;31.67;;;;;;;0.51;62.10;102742.54;1697205;84;21226;-57
2023/02/09 22:39:16;;;;;;;58.87;32.98;;;;;;;0.52;62.13;102739.78;1694797;84;21198;-57
2023/02/09 22:42:27;;;;;;;55.15;32.05;;;;;;;0.52;62.09;102744.28;1756722;81;21218;-57
2023/02/09 22:45:49;;;;;;;57.43;33.33;;;;;;;0.51;62.13;102740.70;1702991;84;21214;-57
2023/02/09 22:49:07;;;;;;;54.98;32.38;;;;;;;0.50;62.04;102732.67;1696368;84;21222;-58
2023/02/09 22:52:21;;;;;;;58.48;32.85;;;;;;;0.46;62.05;102725.16;1697250;84;21391;-58
2023/02/09 22:55:40;;;;;;;52.93;31.42;;;;;;;0.45;62.09;102716.68;1697114;84;21364;-57
2023/02/09 22:58:52;;;;;;;55.50;31.68;;;;;;;0.44;62.14;102712.23;1683895;84;21849;-57
2023/02/09 23:02:02;;;;;;;58.78;31.75;;;;;;;0.45;62.17;102719.83;1695037;84;21214;-58
2023/02/09 23:05:30;;;;;;;57.40;32.08;;;;;;;0.43;62.15;102712.30;1730003;81;21368;-58
2023/02/09 23:08:41;;;;;;;54.23;29.98;;;;;;;0.41;62.17;102722.23;1701026;84;21742;-56
2023/02/09 23:11:50;;;;;;;51.40;31.77;;;;;;;0.40;62.14;102723.18;1698776;84;21296;-57
2023/02/09 23:15:05;;;;;;;54.98;30.20;;;;;;;0.40;62.17;102717.80;1701687;84;21787;-57
2023/02/09 23:18:23;;;;;;;55.10;31.82;;;;;;;0.39;62.15;102712.86;1756396;81;21265;-56
2023/02/09 23:21:39;;;;;;;52.33;29.40;;;;;;;0.38;62.13;102716.95;1756730;81;21273;-56
2023/02/09 23:24:54;;;;;;;45.78;28.00;;;;;;;0.38;62.13;102705.69;1672414;86;21228;-56
2023/02/09 23:28:09;;;;;;;50.05;29.20;;;;;;;0.35;62.10;102703.60;1718352;83;21379;-57
2023/02/09 23:31:21;;;;;;;51.50;28.32;;;;;;;0.35;62.15;102708.50;1706060;83;21308;-57
2023/02/09 23:34:37;;;;;;;51.23;30.20;;;;;;;0.36;62.23;102710.73;1720514;83;21399;-57
2023/02/09 23:37:54;;;;;;;51.23;30.08;;;;;;;0.35;62.24;102695.03;1708313;83;21791;-56
2023/02/09 23:41:18;;;;;;;50.30;28.67;;;;;;;0.37;62.27;102696.32;1704908;84;21249;-57
2023/02/09 23:44:29;;;;;;;50.70;30.90;;;;;;;0.37;62.31;102699.91;1710370;83;21363;-56
2023/02/09 23:47:50;;;;;;;47.38;27.15;;;;;;;0.38;62.34;102700.80;1698224;83;21718;-57
2023/02/09 23:51:05;;;;;;;51.85;30.85;;;;;;;0.36;62.29;102686.49;1714753;83;21906;-56
2023/02/09 23:54:16;;;;;;;53.02;28.60;;;;;;;0.30;62.28;102686.27;1716819;83;21849;-56
2023/02/09 23:57:25;;;;;;;52.65;30.17;;;;;;;0.27;62.35;102689.03;1698037;83;21269;-56
